This is the latest recevied weather packets stored in our database for station/object N8WJW. If no packets are shown the sender has not sent any weather packets the latest 1 day(s).
| Time | Temp. | Humidity | Pressure | Rain* | Wind** | Luminosity | Snow |
|---|---|---|---|---|---|---|---|
| 1836274663 | 16.11° C | 88% | 1023.8 hPa | 0 mm | 0 m/s | 0 W/m² | - |
| 1836274516 | 15.56° C | 89% | 1023.7 hPa | 0 mm | 0 m/s | 0 W/m² | - |
| 1836274361 | 16.11° C | 88% | 1023.6 hPa | 0 mm | 0 m/s | 0 W/m² | - |
| 1836274214 | 16.11° C | 89% | 1023.8 hPa | 0 mm | 0 m/s | 0 W/m² | - |
| 1836274059 | 16.11° C | 88% | 1023.6 hPa | 0 mm | 0.45 m/s, 159° | 0 W/m² | - |
| 1778046874 | 7.22° C | 99% | 1009 hPa | 0 mm | 0 m/s | 0 W/m² | - |
| 1778046570 | 7.22° C | 99% | 1008.9 hPa | 0 mm | 0 m/s | 0 W/m² | - |
| 1778046267 | 7.22° C | 99% | 1009 hPa | 0 mm | 0 m/s | 0 W/m² | - |
| 1778045963 | 7.22° C | 99% | 1009.1 hPa | 0 mm | 0.89 m/s, 92° | 0 W/m² | - |
| 1778045662 | 7.78° C | 99% | 1009.2 hPa | 0 mm | 0.45 m/s, 81° | 0 W/m² | - |
| 1778045360 | 7.78° C | 99% | 1009.3 hPa | 0 mm | 0 m/s | 0 W/m² | - |
| 1778045058 | 7.22° C | 99% | 1009.4 hPa | 0 mm | 0 m/s | 0 W/m² | - |
| 1778044755 | 7.78° C | 99% | 1009.6 hPa | 0 mm | 0.89 m/s, 252° | 0 W/m² | - |
| 1778044452 | 7.78° C | 99% | 1009.7 hPa | 0 mm | 0.45 m/s, 204° | 0 W/m² | - |
| 1778044149 | 7.78° C | 99% | 1009.6 hPa | 0 mm | 0.45 m/s, 70° | 0 W/m² | - |
| 1778043846 | 7.78° C | 99% | 1009.6 hPa | 0 mm | 0.45 m/s, 243° | 0 W/m² | - |
| 1778043551 | 7.78° C | 99% | 1009.6 hPa | 0 mm | 0 m/s | 0 W/m² | - |
| 1778043240 | 7.78° C | 99% | 1009.6 hPa | 0 mm | 0 m/s | 0 W/m² | - |
| 1778042937 | 7.78° C | 99% | 1009.7 hPa | 0 mm | 0 m/s | 0 W/m² | - |
| 1778042635 | 7.78° C | 99% | 1009.7 hPa | 0 mm | 0.45 m/s, 36° | 0 W/m² | - |
| 1778042331 | 7.78° C | 99% | 1009.8 hPa | 0 mm | 0.45 m/s, 55° | 0 W/m² | - |
| 1778042029 | 8.33° C | 99% | 1009.8 hPa | 0 mm | 0 m/s | 0 W/m² | - |
| 1778041727 | 8.33° C | 99% | 1009.7 hPa | 0 mm | 0 m/s | 0 W/m² | - |
| 1778041426 | 8.33° C | 99% | 1010 hPa | 0 mm | 0 m/s | 0 W/m² | - |
| 1778041124 | 8.33° C | 99% | 1009.9 hPa | 0 mm | 0 m/s | 0 W/m² | - |
* Rain latest hour (hover to see other rain measurements)
** Current wind speed in m/s (hover to see current wind gust speed)